createdAt,value
2022-09-27T03:18:23.321Z,31.08
2022-09-27T03:21:18.500Z,29.33
2022-09-27T03:23:47.728Z,32.30
2022-09-27T03:26:15.855Z,33.40
2022-09-27T03:28:47.028Z,30.48
2022-09-27T03:31:17.989Z,30.30
2022-09-27T03:34:19.542Z,30.92
2022-09-27T03:37:15.016Z,30.95
2022-09-27T03:39:59.818Z,33.00
2022-09-27T03:42:49.653Z,31.17
2022-09-27T03:45:20.040Z,29.98
2022-09-27T03:48:03.790Z,29.85
2022-09-27T03:50:51.971Z,30.38
2022-09-27T03:53:28.330Z,30.60
2022-09-27T03:56:04.242Z,30.77
2022-09-27T03:58:37.877Z,30.92
2022-09-27T04:01:11.151Z,29.83
2022-09-27T04:03:45.881Z,32.25
2022-09-27T04:06:35.101Z,29.95
2022-09-27T04:09:08.910Z,29.83
2022-09-27T04:12:03.737Z,32.33
2022-09-27T04:14:51.814Z,32.78
2022-09-27T04:17:58.324Z,30.13
2022-09-27T04:20:39.913Z,31.45
2022-09-27T04:23:13.413Z,30.98
2022-09-27T04:25:59.158Z,32.13
2022-09-27T04:29:12.465Z,30.77
2022-09-27T04:32:02.517Z,32.33
2022-09-27T04:34:50.433Z,32.10
2022-09-27T04:37:24.167Z,31.60
2022-09-27T04:39:56.576Z,32.38
2022-09-27T04:42:41.691Z,32.20
2022-09-27T04:45:19.120Z,31.17
2022-09-27T04:48:00.604Z,31.45
2022-09-27T04:51:08.045Z,31.02
2022-09-27T04:53:44.809Z,29.70
2022-09-27T04:56:24.723Z,31.38
2022-09-27T04:59:10.812Z,29.35
2022-09-27T05:02:20.961Z,29.98
2022-09-27T05:05:08.201Z,31.20
2022-09-27T05:07:58.397Z,31.13
2022-09-27T05:10:52.620Z,29.67
2022-09-27T05:13:23.827Z,31.50
2022-09-27T05:15:57.554Z,30.77
2022-09-27T05:18:44.383Z,31.98
2022-09-27T05:21:32.758Z,30.23
2022-09-27T05:24:01.240Z,30.90
2022-09-27T05:26:29.461Z,31.25
2022-09-27T05:29:08.174Z,29.42
2022-09-27T05:31:55.746Z,29.10
2022-09-27T05:34:34.415Z,30.35
2022-09-27T05:37:19.091Z,29.08
2022-09-27T05:39:54.002Z,29.65
2022-09-27T05:42:24.811Z,30.02
2022-09-27T05:44:54.728Z,27.67
2022-09-27T05:47:27.263Z,26.92
2022-09-27T05:50:00.739Z,29.75
2022-09-27T05:52:45.823Z,28.38
2022-09-27T05:55:15.730Z,28.42
2022-09-27T05:57:45.604Z,29.95
2022-09-27T06:00:26.790Z,28.80
2022-09-27T06:03:09.557Z,27.08
2022-09-27T06:06:10.876Z,26.83
2022-09-27T06:09:01.186Z,26.33
2022-09-27T06:11:36.271Z,25.20
2022-09-27T06:14:16.739Z,23.83
2022-09-27T06:17:04.242Z,24.58
2022-09-27T06:19:41.088Z,23.65
2022-09-27T06:22:16.809Z,24.15
2022-09-27T06:25:21.427Z,23.48
2022-09-27T06:28:23.294Z,25.33
2022-09-27T06:31:02.439Z,21.58
2022-09-27T06:33:53.644Z,23.00
2022-09-27T06:36:41.316Z,22.10
2022-09-27T06:39:11.199Z,22.95
2022-09-27T06:42:08.224Z,22.00
2022-09-27T06:45:09.549Z,20.73
2022-09-27T06:47:41.124Z,19.30
2022-09-27T06:50:28.409Z,19.85
2022-09-27T06:53:04.842Z,20.05
2022-09-27T06:55:33.672Z,21.17
2022-09-27T06:58:20.578Z,19.88
2022-09-27T07:01:09.221Z,21.33
2022-09-27T07:04:13.423Z,23.10
2022-09-27T07:07:04.048Z,22.27
2022-09-27T07:09:44.977Z,22.10
2022-09-27T07:12:25.951Z,20.42
2022-09-27T07:15:04.667Z,21.73
2022-09-27T07:17:58.902Z,20.42
2022-09-27T07:20:46.306Z,20.88
2022-09-27T07:23:17.961Z,19.77
2022-09-27T07:25:52.227Z,19.60
2022-09-27T07:28:24.041Z,20.08
2022-09-27T07:31:04.695Z,21.80
2022-09-27T07:33:42.988Z,22.00
2022-09-27T07:36:18.486Z,19.15
2022-09-27T07:38:56.484Z,19.35
2022-09-27T07:41:28.944Z,19.50
2022-09-27T07:43:59.892Z,20.83
2022-09-27T07:46:35.607Z,19.50
2022-09-27T07:49:39.284Z,19.80
2022-09-27T07:52:40.492Z,19.42
2022-09-27T07:55:28.309Z,20.52
2022-09-27T07:58:21.901Z,19.70
2022-09-27T08:00:53.550Z,21.52
2022-09-27T08:03:26.503Z,23.15
2022-09-27T08:06:10.413Z,25.30
2022-09-27T08:08:41.125Z,22.15
2022-09-27T08:11:35.071Z,20.73
2022-09-27T08:14:15.012Z,20.35
2022-09-27T08:16:52.488Z,17.98
2022-09-27T08:19:34.403Z,16.17
2022-09-27T08:22:35.338Z,16.25
2022-09-27T08:25:07.494Z,14.52
2022-09-27T08:28:12.965Z,14.77
2022-09-27T08:31:01.115Z,14.68
2022-09-27T08:33:42.787Z,14.35
2022-09-27T08:36:25.697Z,15.88
2022-09-27T08:39:00.935Z,16.13
2022-09-27T08:42:07.617Z,15.27
2022-09-27T08:45:04.530Z,14.63
2022-09-27T08:47:42.057Z,13.63
2022-09-27T08:50:45.632Z,14.02
2022-09-27T08:53:36.994Z,12.50
2022-09-27T08:56:10.259Z,12.32
2022-09-27T08:58:49.856Z,12.73
2022-09-27T09:01:30.020Z,15.15
2022-09-27T09:04:13.237Z,12.80
2022-09-27T09:06:53.071Z,11.82
2022-09-27T09:09:34.973Z,13.10
2022-09-27T09:12:43.282Z,13.35
2022-09-27T09:15:27.608Z,12.60
2022-09-27T09:18:27.777Z,11.50
2022-09-27T09:21:42.413Z,12.10
2022-09-27T09:24:26.509Z,12.18
2022-09-27T09:27:03.213Z,12.32
2022-09-27T09:29:47.677Z,12.05
2022-09-27T09:32:28.381Z,11.95
2022-09-27T09:35:02.290Z,11.88
2022-09-27T09:37:45.033Z,11.45
2022-09-27T09:40:22.173Z,12.13
2022-09-27T09:42:59.824Z,11.60
2022-09-27T09:45:33.332Z,11.00
2022-09-27T09:48:17.209Z,10.60
2022-09-27T09:50:49.696Z,9.73
2022-09-27T09:53:25.455Z,10.68
2022-09-27T09:56:01.800Z,9.13
2022-09-27T09:58:38.224Z,9.63
2022-09-27T10:01:20.005Z,10.05
2022-09-27T10:03:51.416Z,9.40
2022-09-27T10:06:24.131Z,8.98
2022-09-27T10:09:15.056Z,8.77
2022-09-27T10:11:51.539Z,13.80
2022-09-27T10:14:36.621Z,10.48
2022-09-27T10:17:22.217Z,9.95
2022-09-27T10:19:54.587Z,9.52
2022-09-27T10:22:32.434Z,8.32
2022-09-27T10:25:11.175Z,7.70
2022-09-27T10:28:15.995Z,8.20
2022-09-27T10:30:46.228Z,8.18
2022-09-27T10:33:33.796Z,7.20
2022-09-27T10:36:27.725Z,6.57
2022-09-27T10:39:33.050Z,6.63
2022-09-27T10:42:20.914Z,6.80
2022-09-27T10:44:51.640Z,7.15
2022-09-27T10:51:30.986Z,5.93
2022-09-27T10:54:20.563Z,6.18
2022-09-27T10:57:03.532Z,6.50
2022-09-27T10:59:47.002Z,5.97
2022-09-27T11:02:36.744Z,6.30
2022-09-27T11:05:40.682Z,6.10
2022-09-27T11:09:14.358Z,6.68
2022-09-27T11:11:45.459Z,6.10
2022-09-27T11:14:35.086Z,5.82
2022-09-27T11:17:47.635Z,6.13
2022-09-27T11:20:33.712Z,5.68
2022-09-27T11:23:39.647Z,5.38
2022-09-27T11:26:36.263Z,5.80
2022-09-27T11:29:19.977Z,13.90
2022-09-27T11:32:20.155Z,6.53
2022-09-27T11:35:09.454Z,5.70
2022-09-27T11:38:00.648Z,6.00
2022-09-27T11:40:44.902Z,5.38
2022-09-27T11:43:45.143Z,7.95
2022-09-27T11:46:41.145Z,5.95
2022-09-27T11:49:35.347Z,6.22
2022-09-27T11:52:30.844Z,5.90
2022-09-27T11:55:19.230Z,5.75
2022-09-27T11:57:59.697Z,6.47
2022-09-27T12:00:43.151Z,5.72
2022-09-27T12:03:59.453Z,5.75
2022-09-27T12:06:39.996Z,6.70
2022-09-27T12:09:22.396Z,6.30
2022-09-27T12:12:10.895Z,6.07
2022-09-27T12:14:51.696Z,6.07
2022-09-27T12:17:27.719Z,5.93
2022-09-27T12:20:05.717Z,7.40
2022-09-27T12:22:59.148Z,7.97
2022-09-27T12:25:50.932Z,6.88
2022-09-27T12:28:34.822Z,6.93
2022-09-27T12:31:28.570Z,7.13
2022-09-27T12:34:12.162Z,7.40
2022-09-27T12:36:48.477Z,7.60
2022-09-27T12:39:28.287Z,8.38
2022-09-27T12:42:19.521Z,7.70
2022-09-27T12:44:51.820Z,7.75
2022-09-27T12:47:38.268Z,7.60
2022-09-27T12:50:20.548Z,8.32
2022-09-27T12:53:00.295Z,7.60
2022-09-27T12:56:10.872Z,8.10
2022-09-27T12:58:59.974Z,7.05
2022-09-27T13:01:49.612Z,8.43
2022-09-27T13:04:47.933Z,7.03
2022-09-27T13:07:34.952Z,7.65
2022-09-27T13:10:26.739Z,6.65
2022-09-27T13:12:58.216Z,7.43
2022-09-27T13:15:30.592Z,6.93
2022-09-27T13:18:03.052Z,7.53
2022-09-27T13:20:49.234Z,7.70
2022-09-27T13:23:53.186Z,7.38
2022-09-27T13:26:51.870Z,6.88
2022-09-27T13:29:34.471Z,7.50
2022-09-27T13:32:24.429Z,8.45
2022-09-27T13:35:19.865Z,6.90
2022-09-27T13:38:00.885Z,7.20
2022-09-27T13:40:44.227Z,6.50
2022-09-27T13:43:54.456Z,7.20
2022-09-27T13:46:35.729Z,6.88
2022-09-27T13:49:16.149Z,7.07
2022-09-27T13:52:20.872Z,6.55
2022-09-27T13:54:59.575Z,7.85
2022-09-27T13:57:43.777Z,6.47
2022-09-27T14:00:19.930Z,6.55
2022-09-27T14:03:03.681Z,13.90
2022-09-27T14:05:37.748Z,8.27
2022-09-27T14:08:15.347Z,7.10
2022-09-27T14:10:45.138Z,6.70
2022-09-27T14:13:24.025Z,7.25
2022-09-27T14:16:04.999Z,6.60
2022-09-27T14:18:46.458Z,6.82
2022-09-27T14:21:25.348Z,6.25
2022-09-27T14:24:29.208Z,6.78
2022-09-27T14:27:13.454Z,6.38
2022-09-27T14:29:46.488Z,6.63
2022-09-27T14:32:21.620Z,16.70
2022-09-27T14:35:32.764Z,7.30
2022-09-27T14:38:15.834Z,7.20
2022-09-27T14:41:07.354Z,6.30
2022-09-27T14:43:37.147Z,7.00
2022-09-27T14:46:07.472Z,7.72
2022-09-27T14:48:37.860Z,6.35
2022-09-27T14:51:20.700Z,6.20
2022-09-27T14:53:53.681Z,7.03
2022-09-27T14:56:33.491Z,7.40
2022-09-27T14:59:11.467Z,8.93
2022-09-27T15:01:50.536Z,6.30
2022-09-27T15:04:23.437Z,7.30
2022-09-27T15:06:57.241Z,6.43
2022-09-27T15:09:32.350Z,6.68
2022-09-27T15:12:26.196Z,6.47
2022-09-27T15:15:03.943Z,7.30
2022-09-27T15:17:47.802Z,7.55
2022-09-27T15:20:35.756Z,8.80
2022-09-27T15:23:31.853Z,7.75
2022-09-27T15:26:11.443Z,7.28
2022-09-27T15:29:26.078Z,11.10
2022-09-27T15:32:03.018Z,7.82
2022-09-27T15:34:34.286Z,6.95
2022-09-27T15:37:30.368Z,9.02
2022-09-27T15:40:32.456Z,7.82
2022-09-27T15:43:30.288Z,6.95
2022-09-27T15:46:03.484Z,7.78
2022-09-27T15:48:45.839Z,9.10
2022-09-27T15:51:52.615Z,8.07
2022-09-27T15:54:35.977Z,7.97
2022-09-27T15:57:06.723Z,7.72
2022-09-27T15:59:39.582Z,7.10
2022-09-27T16:02:17.600Z,7.40
2022-09-27T16:04:47.555Z,6.47
2022-09-27T16:07:16.710Z,7.75
2022-09-27T16:09:47.073Z,7.93
2022-09-27T16:12:15.666Z,6.47
2022-09-27T16:14:45.227Z,6.50
2022-09-27T16:17:18.520Z,6.40
2022-09-27T16:19:47.291Z,6.45
2022-09-27T16:22:17.229Z,6.25
2022-09-27T16:24:46.348Z,5.60
2022-09-27T16:27:19.318Z,6.03
2022-09-27T16:29:49.632Z,6.82
2022-09-27T16:32:22.959Z,6.28
2022-09-27T16:34:54.659Z,6.60
2022-09-27T16:37:23.357Z,7.10
2022-09-27T16:39:51.912Z,7.53
2022-09-27T16:42:22.111Z,6.63
2022-09-27T16:44:52.927Z,7.32
2022-09-27T16:47:31.267Z,7.10
2022-09-27T16:50:17.484Z,6.32
2022-09-27T16:52:49.936Z,7.18
2022-09-27T16:55:21.171Z,6.68
2022-09-27T16:57:50.027Z,7.03
2022-09-27T17:00:19.670Z,6.43
2022-09-27T17:02:49.926Z,7.00
2022-09-27T17:05:20.269Z,7.05
2022-09-27T17:07:52.236Z,7.07
2022-09-27T17:10:20.884Z,6.80
2022-09-27T17:12:50.776Z,7.45
2022-09-27T17:15:25.580Z,6.70
2022-09-27T17:17:55.474Z,7.50
2022-09-27T17:20:23.976Z,7.00
2022-09-27T17:22:53.599Z,7.30
2022-09-27T17:25:27.054Z,7.15
2022-09-27T17:27:55.802Z,7.30
2022-09-27T17:30:24.394Z,7.75
2022-09-27T17:32:57.607Z,7.45
2022-09-27T17:35:31.453Z,6.68
2022-09-27T17:37:59.860Z,7.82
2022-09-27T17:40:28.389Z,7.68
2022-09-27T17:42:57.061Z,8.00
2022-09-27T17:45:25.579Z,8.43
2022-09-27T17:48:19.551Z,7.75
2022-09-27T17:50:47.958Z,8.35
2022-09-27T17:53:16.300Z,9.20
2022-09-27T17:55:45.091Z,9.20
2022-09-27T17:58:13.400Z,10.30
2022-09-27T18:00:42.033Z,10.57
2022-09-27T18:03:13.094Z,10.50
2022-09-27T18:05:41.695Z,10.07
2022-09-27T18:08:10.030Z,10.48
2022-09-27T18:10:38.843Z,9.85
2022-09-27T18:13:07.722Z,9.82
2022-09-27T18:15:37.574Z,9.95
2022-09-27T18:18:06.268Z,8.68
2022-09-27T18:20:37.491Z,10.00
2022-09-27T18:23:11.196Z,11.05
2022-09-27T18:25:42.286Z,11.18
2022-09-27T18:28:11.232Z,12.02
2022-09-27T18:30:42.187Z,9.98
2022-09-27T18:33:10.885Z,10.60
2022-09-27T18:35:42.726Z,10.55
2022-09-27T18:38:13.474Z,11.40
2022-09-27T18:40:57.067Z,10.43
2022-09-27T18:43:28.543Z,11.25
2022-09-27T18:46:04.372Z,11.70
2022-09-27T18:48:48.321Z,11.63
2022-09-27T18:51:24.493Z,12.40
2022-09-27T18:53:56.522Z,13.65
2022-09-27T18:56:27.579Z,15.85
2022-09-27T18:58:59.532Z,16.25
2022-09-27T19:01:30.844Z,15.48
2022-09-27T19:04:01.625Z,16.98
2022-09-27T19:06:35.305Z,15.38
2022-09-27T19:09:05.062Z,15.70
2022-09-27T19:11:38.410Z,15.27
2022-09-27T19:14:07.226Z,12.75
2022-09-27T19:16:38.179Z,13.07
2022-09-27T19:19:09.334Z,14.20
2022-09-27T19:21:39.222Z,11.77
2022-09-27T19:24:07.897Z,12.20
2022-09-27T19:26:38.071Z,11.85
2022-09-27T19:29:08.275Z,11.23
2022-09-27T19:31:38.641Z,11.52
2022-09-27T19:34:10.375Z,11.40
2022-09-27T19:36:40.854Z,11.48
2022-09-27T19:39:11.713Z,11.38
2022-09-27T19:41:40.464Z,11.35
2022-09-27T19:44:13.464Z,12.70
2022-09-27T19:46:42.254Z,12.38
2022-09-27T19:49:15.518Z,14.15
2022-09-27T19:51:48.146Z,13.38
2022-09-27T19:54:21.345Z,12.82
2022-09-27T19:56:50.727Z,11.27
2022-09-27T19:59:31.776Z,12.35
2022-09-27T20:02:05.320Z,12.82
2022-09-27T20:04:33.945Z,14.35
2022-09-27T20:07:03.681Z,15.65
2022-09-27T20:09:33.067Z,14.00
2022-09-27T20:12:03.267Z,13.23
2022-09-27T20:14:32.148Z,11.98
2022-09-27T20:17:00.623Z,12.40
2022-09-27T20:19:29.143Z,13.48
2022-09-27T20:21:57.799Z,11.98
2022-09-27T20:24:30.510Z,12.73
2022-09-27T20:27:04.636Z,12.90
2022-09-27T20:29:35.501Z,12.85
2022-09-27T20:32:26.847Z,13.52
2022-09-27T20:35:01.883Z,13.25
2022-09-27T20:37:32.949Z,12.48
2022-09-27T20:40:07.768Z,13.70
2022-09-27T20:45:44.598Z,12.45
2022-09-27T20:48:13.112Z,14.10
2022-09-27T20:50:44.125Z,13.02
2022-09-27T20:53:13.191Z,11.98
2022-09-27T20:55:51.806Z,12.05
2022-09-27T20:58:25.221Z,12.40
2022-09-27T21:00:55.191Z,12.18
2022-09-27T21:03:23.748Z,12.93
2022-09-27T21:05:55.213Z,13.25
2022-09-27T21:08:24.867Z,12.70
2022-09-27T21:10:54.016Z,12.73
2022-09-27T21:13:23.192Z,12.93
2022-09-27T21:15:51.450Z,13.55
2022-09-27T21:18:21.665Z,13.23
2022-09-27T21:21:00.980Z,13.57
2022-09-27T21:23:31.741Z,13.90
2022-09-27T21:26:06.968Z,14.18
2022-09-27T21:28:41.912Z,14.95
2022-09-27T21:31:12.242Z,15.32
2022-09-27T21:33:42.684Z,14.55
2022-09-27T21:36:14.405Z,13.68
2022-09-27T21:38:43.064Z,14.55
2022-09-27T21:41:16.250Z,15.57
2022-09-27T21:43:46.321Z,14.98
2022-09-27T21:46:18.435Z,16.00
2022-09-27T21:48:50.038Z,16.02
2022-09-27T21:51:20.052Z,15.30
2022-09-27T21:53:52.591Z,15.80
2022-09-27T21:56:21.758Z,15.63
2022-09-27T21:58:50.387Z,15.75
2022-09-27T22:01:21.932Z,15.65
2022-09-27T22:03:54.175Z,15.82
2022-09-27T22:06:24.687Z,16.95
2022-09-27T22:08:53.585Z,17.85
